Decoded Metar for LFLB (CHAMBERY in FRANCE) (IATA:CMF) | Meteo·Mobile Aviation Weather
aviador You're here:

LFLB Decoded Metar

CHAMBERY in FRANCE
Report Time2018-08-21 16:00:00
UTC Time2018-08-21 16:06:33
Flight Rules vfr VFR
WindVRB at 02 kt
Visibility9999 m
Phenomena:N/A
Clouds:N/A
Expected CloudBase > 4,800 ft AGL from Temp-Dew spread
CeilingNone
Temp31°C (ISA +18)
Dew Point19°C (49% RH)
Heat Index32.4°C
QNH1016 hPa
Density Alt2,982 ft
Elevation784 ft
Report Wrong Elevation
Raw Report
METAR LFLB 211600Z AUTO VRB02KT CAVOK 31/19 Q1016 TEMPO FEW070CB=

Extra information for LFLB:More info

Metar Taf Metar & Taf Last 4 Metars F.Rules Stats Wind Profile Meteogram Temp Stats Airport Information Weather charts Add Link Nearby VenuesMetar ALERT Operation Metar Decoded Social comments